Foxboro, Wisconsin
Current Conditions -  °F | °C
As of 10:15 PM on Tuesday 27 Jan 2015 (Local Time) from KSUW Reporting Station
Overcast Overcast  
Wind Chill: 29°   Ceiling: 9500
Heat Index: 29°   Visibility: 10mi
Dew Point: 24°   Wind: 3mph
Humidity: 82%   Direction: 180°S
Pressure: 30.14"   Gusts: NA
Location:  46.5°N, 92.29°W
Report Text: KSUW 280415Z AUTO 18003KT 10SM OVC095 M02/M04 A3014 RMK AO2 T10171044
Loading
Personal Weather Stations






























Interactive Weather Map New forecast layout! Learn more

10-Day Weather Forecast

Advertisements
Track Severe Weather on mobile